sensor_id;sensor_type;location;lat;lon;timestamp;P1;durP1;ratioP1;P2;durP2;ratioP2
37288;SDS011;23174;49.462;11.000;2022-12-18T00:01:56;60.78;;;45.17;;
37288;SDS011;23174;49.462;11.000;2022-12-18T00:03:59;75.97;;;56.38;;
37288;SDS011;23174;49.462;11.000;2022-12-18T00:06:01;64.22;;;48.13;;
37288;SDS011;23174;49.462;11.000;2022-12-18T00:08:02;54.90;;;41.75;;
37288;SDS011;23174;49.462;11.000;2022-12-18T00:10:03;52.83;;;40.45;;
37288;SDS011;23174;49.462;11.000;2022-12-18T00:12:04;51.03;;;37.08;;
37288;SDS011;23174;49.462;11.000;2022-12-18T00:14:05;43.17;;;34.00;;
37288;SDS011;23174;49.462;11.000;2022-12-18T00:16:09;46.70;;;31.85;;
37288;SDS011;23174;49.462;11.000;2022-12-18T00:18:12;44.13;;;31.05;;
37288;SDS011;23174;49.462;11.000;2022-12-18T00:20:13;46.95;;;30.77;;
37288;SDS011;23174;49.462;11.000;2022-12-18T00:22:13;49.35;;;36.28;;
37288;SDS011;23174;49.462;11.000;2022-12-18T00:24:19;49.08;;;37.50;;
37288;SDS011;23174;49.462;11.000;2022-12-18T00:26:21;46.63;;;35.33;;
37288;SDS011;23174;49.462;11.000;2022-12-18T00:28:23;50.50;;;36.65;;
37288;SDS011;23174;49.462;11.000;2022-12-18T00:30:24;45.40;;;35.72;;
37288;SDS011;23174;49.462;11.000;2022-12-18T00:32:24;48.90;;;37.58;;
37288;SDS011;23174;49.462;11.000;2022-12-18T00:34:25;51.75;;;37.33;;
37288;SDS011;23174;49.462;11.000;2022-12-18T00:36:27;48.90;;;35.97;;
37288;SDS011;23174;49.462;11.000;2022-12-18T00:38:29;48.58;;;37.53;;
37288;SDS011;23174;49.462;11.000;2022-12-18T00:40:30;53.00;;;37.00;;
37288;SDS011;23174;49.462;11.000;2022-12-18T00:42:30;44.22;;;35.40;;
37288;SDS011;23174;49.462;11.000;2022-12-18T00:44:50;50.92;;;34.80;;
37288;SDS011;23174;49.462;11.000;2022-12-18T00:46:50;45.30;;;36.35;;
37288;SDS011;23174;49.462;11.000;2022-12-18T00:48:51;42.92;;;33.58;;
37288;SDS011;23174;49.462;11.000;2022-12-18T00:50:51;45.38;;;35.78;;
37288;SDS011;23174;49.462;11.000;2022-12-18T00:52:52;44.83;;;34.35;;
37288;SDS011;23174;49.462;11.000;2022-12-18T00:54:52;45.85;;;35.45;;
37288;SDS011;23174;49.462;11.000;2022-12-18T00:56:53;43.70;;;34.22;;
37288;SDS011;23174;49.462;11.000;2022-12-18T00:58:55;43.80;;;33.53;;
37288;SDS011;23174;49.462;11.000;2022-12-18T01:00:55;45.90;;;34.55;;
37288;SDS011;23174;49.462;11.000;2022-12-18T01:02:56;44.13;;;34.20;;
37288;SDS011;23174;49.462;11.000;2022-12-18T01:04:57;44.42;;;32.03;;
37288;SDS011;23174;49.462;11.000;2022-12-18T01:06:57;46.95;;;34.17;;
37288;SDS011;23174;49.462;11.000;2022-12-18T01:08:58;42.40;;;33.85;;
37288;SDS011;23174;49.462;11.000;2022-12-18T01:10:59;46.22;;;34.47;;
37288;SDS011;23174;49.462;11.000;2022-12-18T01:12:59;46.13;;;34.30;;
37288;SDS011;23174;49.462;11.000;2022-12-18T01:15:00;42.17;;;35.08;;
37288;SDS011;23174;49.462;11.000;2022-12-18T01:17:01;44.95;;;34.65;;
37288;SDS011;23174;49.462;11.000;2022-12-18T01:19:03;43.13;;;33.05;;
37288;SDS011;23174;49.462;11.000;2022-12-18T01:21:07;48.88;;;35.08;;
37288;SDS011;23174;49.462;11.000;2022-12-18T01:23:10;46.80;;;33.75;;
37288;SDS011;23174;49.462;11.000;2022-12-18T01:25:10;45.63;;;33.42;;
37288;SDS011;23174;49.462;11.000;2022-12-18T01:27:11;48.80;;;34.35;;
37288;SDS011;23174;49.462;11.000;2022-12-18T01:29:11;44.20;;;32.10;;
37288;SDS011;23174;49.462;11.000;2022-12-18T01:33:20;47.30;;;32.83;;
37288;SDS011;23174;49.462;11.000;2022-12-18T01:35:20;44.55;;;33.40;;
37288;SDS011;23174;49.462;11.000;2022-12-18T01:37:21;46.13;;;32.65;;
37288;SDS011;23174;49.462;11.000;2022-12-18T01:39:21;46.05;;;31.85;;
37288;SDS011;23174;49.462;11.000;2022-12-18T01:41:23;46.88;;;32.38;;
37288;SDS011;23174;49.462;11.000;2022-12-18T01:45:45;47.08;;;32.70;;
37288;SDS011;23174;49.462;11.000;2022-12-18T01:47:47;46.88;;;32.05;;
37288;SDS011;23174;49.462;11.000;2022-12-18T01:49:50;49.03;;;32.08;;
37288;SDS011;23174;49.462;11.000;2022-12-18T01:51:52;47.20;;;33.42;;
37288;SDS011;23174;49.462;11.000;2022-12-18T01:53:52;49.00;;;32.88;;
37288;SDS011;23174;49.462;11.000;2022-12-18T01:55:54;44.42;;;30.95;;
37288;SDS011;23174;49.462;11.000;2022-12-18T01:57:57;43.92;;;31.10;;
37288;SDS011;23174;49.462;11.000;2022-12-18T02:00:00;49.60;;;32.92;;
37288;SDS011;23174;49.462;11.000;2022-12-18T02:02:04;41.03;;;29.85;;
37288;SDS011;23174;49.462;11.000;2022-12-18T02:04:19;43.30;;;31.30;;
37288;SDS011;23174;49.462;11.000;2022-12-18T02:06:24;46.88;;;30.20;;
37288;SDS011;23174;49.462;11.000;2022-12-18T02:08:40;46.28;;;29.80;;
37288;SDS011;23174;49.462;11.000;2022-12-18T02:17:45;46.25;;;31.50;;
37288;SDS011;23174;49.462;11.000;2022-12-18T02:20:02;45.65;;;30.13;;
37288;SDS011;23174;49.462;11.000;2022-12-18T02:24:43;38.83;;;27.00;;
37288;SDS011;23174;49.462;11.000;2022-12-18T02:27:06;45.25;;;28.90;;
37288;SDS011;23174;49.462;11.000;2022-12-18T02:29:13;42.85;;;28.15;;
37288;SDS011;23174;49.462;11.000;2022-12-18T02:31:19;42.05;;;28.58;;
37288;SDS011;23174;49.462;11.000;2022-12-18T02:33:24;43.25;;;28.60;;
37288;SDS011;23174;49.462;11.000;2022-12-18T02:35:27;41.28;;;28.58;;
37288;SDS011;23174;49.462;11.000;2022-12-18T02:37:30;41.03;;;28.15;;
37288;SDS011;23174;49.462;11.000;2022-12-18T02:39:32;40.95;;;28.63;;
37288;SDS011;23174;49.462;11.000;2022-12-18T02:41:35;41.45;;;29.48;;
37288;SDS011;23174;49.462;11.000;2022-12-18T02:43:37;41.08;;;28.00;;
37288;SDS011;23174;49.462;11.000;2022-12-18T02:45:49;40.42;;;28.38;;
37288;SDS011;23174;49.462;11.000;2022-12-18T02:47:55;37.22;;;26.42;;
37288;SDS011;23174;49.462;11.000;2022-12-18T02:49:59;38.45;;;27.23;;
37288;SDS011;23174;49.462;11.000;2022-12-18T02:57:33;39.38;;;26.63;;
37288;SDS011;23174;49.462;11.000;2022-12-18T02:59:47;35.90;;;26.10;;
37288;SDS011;23174;49.462;11.000;2022-12-18T03:02:07;36.35;;;25.58;;
37288;SDS011;23174;49.462;11.000;2022-12-18T03:04:30;37.90;;;26.13;;
37288;SDS011;23174;49.462;11.000;2022-12-18T03:07:03;37.97;;;25.48;;
37288;SDS011;23174;49.462;11.000;2022-12-18T03:09:09;36.70;;;25.95;;
37288;SDS011;23174;49.462;11.000;2022-12-18T03:11:14;35.72;;;26.27;;
37288;SDS011;23174;49.462;11.000;2022-12-18T03:13:37;37.10;;;25.20;;
37288;SDS011;23174;49.462;11.000;2022-12-18T03:15:47;36.33;;;25.35;;
37288;SDS011;23174;49.462;11.000;2022-12-18T03:17:57;32.03;;;24.25;;
37288;SDS011;23174;49.462;11.000;2022-12-18T03:20:07;34.30;;;25.42;;
37288;SDS011;23174;49.462;11.000;2022-12-18T03:22:14;32.08;;;24.38;;
37288;SDS011;23174;49.462;11.000;2022-12-18T03:24:16;35.63;;;25.23;;
37288;SDS011;23174;49.462;11.000;2022-12-18T03:26:19;35.67;;;26.35;;
37288;SDS011;23174;49.462;11.000;2022-12-18T03:28:24;35.70;;;25.83;;
37288;SDS011;23174;49.462;11.000;2022-12-18T03:30:28;34.97;;;24.27;;
37288;SDS011;23174;49.462;11.000;2022-12-18T03:32:31;33.20;;;24.50;;
37288;SDS011;23174;49.462;11.000;2022-12-18T03:34:37;32.08;;;23.23;;
37288;SDS011;23174;49.462;11.000;2022-12-18T03:36:39;35.78;;;25.67;;
37288;SDS011;23174;49.462;11.000;2022-12-18T03:38:40;33.15;;;23.70;;
37288;SDS011;23174;49.462;11.000;2022-12-18T03:40:46;33.03;;;24.67;;
37288;SDS011;23174;49.462;11.000;2022-12-18T03:43:07;32.78;;;25.15;;
37288;SDS011;23174;49.462;11.000;2022-12-18T03:45:37;35.40;;;25.05;;
37288;SDS011;23174;49.462;11.000;2022-12-18T03:47:58;34.28;;;24.83;;
37288;SDS011;23174;49.462;11.000;2022-12-18T03:50:17;34.15;;;24.08;;
37288;SDS011;23174;49.462;11.000;2022-12-18T03:52:33;38.00;;;25.90;;
37288;SDS011;23174;49.462;11.000;2022-12-18T03:54:40;35.55;;;25.27;;
37288;SDS011;23174;49.462;11.000;2022-12-18T03:56:44;33.70;;;24.35;;
37288;SDS011;23174;49.462;11.000;2022-12-18T03:58:48;30.35;;;22.90;;
37288;SDS011;23174;49.462;11.000;2022-12-18T04:00:51;34.35;;;24.65;;
37288;SDS011;23174;49.462;11.000;2022-12-18T04:02:55;32.88;;;23.88;;
37288;SDS011;23174;49.462;11.000;2022-12-18T04:04:58;34.90;;;25.35;;
37288;SDS011;23174;49.462;11.000;2022-12-18T04:07:01;35.88;;;23.67;;
37288;SDS011;23174;49.462;11.000;2022-12-18T04:09:03;32.35;;;24.15;;
37288;SDS011;23174;49.462;11.000;2022-12-18T04:11:05;31.27;;;24.52;;
37288;SDS011;23174;49.462;11.000;2022-12-18T04:13:06;31.65;;;23.88;;
37288;SDS011;23174;49.462;11.000;2022-12-18T04:15:07;31.27;;;22.55;;
37288;SDS011;23174;49.462;11.000;2022-12-18T04:17:08;31.80;;;23.70;;
37288;SDS011;23174;49.462;11.000;2022-12-18T04:19:09;32.40;;;23.92;;
37288;SDS011;23174;49.462;11.000;2022-12-18T04:21:10;32.70;;;22.92;;
37288;SDS011;23174;49.462;11.000;2022-12-18T04:23:10;32.08;;;22.63;;
37288;SDS011;23174;49.462;11.000;2022-12-18T04:25:11;30.48;;;23.52;;
37288;SDS011;23174;49.462;11.000;2022-12-18T04:27:12;29.75;;;22.88;;
37288;SDS011;23174;49.462;11.000;2022-12-18T04:29:13;31.17;;;22.50;;
37288;SDS011;23174;49.462;11.000;2022-12-18T04:31:13;29.98;;;21.27;;
37288;SDS011;23174;49.462;11.000;2022-12-18T04:33:16;28.95;;;22.13;;
37288;SDS011;23174;49.462;11.000;2022-12-18T04:35:19;30.92;;;21.88;;
37288;SDS011;23174;49.462;11.000;2022-12-18T04:37:20;30.52;;;23.13;;
37288;SDS011;23174;49.462;11.000;2022-12-18T04:39:21;27.73;;;21.10;;
37288;SDS011;23174;49.462;11.000;2022-12-18T04:41:21;26.08;;;20.92;;
37288;SDS011;23174;49.462;11.000;2022-12-18T04:43:22;31.17;;;22.35;;
37288;SDS011;23174;49.462;11.000;2022-12-18T04:45:22;29.50;;;21.50;;
37288;SDS011;23174;49.462;11.000;2022-12-18T04:47:23;29.25;;;21.25;;
37288;SDS011;23174;49.462;11.000;2022-12-18T04:49:23;25.13;;;20.45;;
37288;SDS011;23174;49.462;11.000;2022-12-18T04:51:24;28.60;;;21.30;;
37288;SDS011;23174;49.462;11.000;2022-12-18T04:53:25;27.70;;;20.45;;
37288;SDS011;23174;49.462;11.000;2022-12-18T04:55:26;26.02;;;20.92;;
37288;SDS011;23174;49.462;11.000;2022-12-18T04:57:27;25.75;;;20.80;;
37288;SDS011;23174;49.462;11.000;2022-12-18T04:59:27;26.08;;;20.23;;
37288;SDS011;23174;49.462;11.000;2022-12-18T05:01:28;29.17;;;21.00;;
37288;SDS011;23174;49.462;11.000;2022-12-18T05:03:28;29.23;;;21.55;;
37288;SDS011;23174;49.462;11.000;2022-12-18T05:05:29;27.60;;;20.65;;
37288;SDS011;23174;49.462;11.000;2022-12-18T05:07:30;28.25;;;20.70;;
37288;SDS011;23174;49.462;11.000;2022-12-18T05:09:30;27.83;;;20.25;;
37288;SDS011;23174;49.462;11.000;2022-12-18T05:11:31;28.52;;;21.00;;
37288;SDS011;23174;49.462;11.000;2022-12-18T05:13:32;28.50;;;21.05;;
37288;SDS011;23174;49.462;11.000;2022-12-18T05:15:33;26.27;;;20.50;;
37288;SDS011;23174;49.462;11.000;2022-12-18T05:17:34;28.83;;;21.10;;
37288;SDS011;23174;49.462;11.000;2022-12-18T05:19:34;26.77;;;20.70;;
37288;SDS011;23174;49.462;11.000;2022-12-18T05:21:35;25.73;;;19.70;;
37288;SDS011;23174;49.462;11.000;2022-12-18T05:23:41;25.60;;;20.90;;
37288;SDS011;23174;49.462;11.000;2022-12-18T05:25:50;25.25;;;20.30;;
37288;SDS011;23174;49.462;11.000;2022-12-18T05:27:52;25.98;;;20.02;;
37288;SDS011;23174;49.462;11.000;2022-12-18T05:29:52;25.55;;;20.73;;
37288;SDS011;23174;49.462;11.000;2022-12-18T05:31:53;24.65;;;19.92;;
37288;SDS011;23174;49.462;11.000;2022-12-18T05:33:54;27.17;;;20.63;;
37288;SDS011;23174;49.462;11.000;2022-12-18T05:35:56;27.38;;;21.40;;
37288;SDS011;23174;49.462;11.000;2022-12-18T05:37:58;27.75;;;20.55;;
37288;SDS011;23174;49.462;11.000;2022-12-18T05:39:58;30.15;;;22.33;;
37288;SDS011;23174;49.462;11.000;2022-12-18T05:41:59;27.92;;;20.73;;
37288;SDS011;23174;49.462;11.000;2022-12-18T05:43:59;25.25;;;19.65;;
37288;SDS011;23174;49.462;11.000;2022-12-18T05:46:04;26.40;;;19.65;;
37288;SDS011;23174;49.462;11.000;2022-12-18T05:48:06;24.13;;;19.48;;
37288;SDS011;23174;49.462;11.000;2022-12-18T05:50:07;23.25;;;18.63;;
37288;SDS011;23174;49.462;11.000;2022-12-18T05:52:08;24.08;;;18.95;;
37288;SDS011;23174;49.462;11.000;2022-12-18T05:54:09;23.58;;;18.33;;
37288;SDS011;23174;49.462;11.000;2022-12-18T05:56:11;25.38;;;18.45;;
37288;SDS011;23174;49.462;11.000;2022-12-18T05:58:14;26.67;;;20.05;;
37288;SDS011;23174;49.462;11.000;2022-12-18T06:00:15;24.38;;;18.60;;
37288;SDS011;23174;49.462;11.000;2022-12-18T06:02:16;25.33;;;19.33;;
37288;SDS011;23174;49.462;11.000;2022-12-18T06:04:16;21.15;;;18.33;;
37288;SDS011;23174;49.462;11.000;2022-12-18T06:06:21;23.60;;;19.42;;
37288;SDS011;23174;49.462;11.000;2022-12-18T06:08:23;23.77;;;19.67;;
37288;SDS011;23174;49.462;11.000;2022-12-18T06:10:24;23.10;;;19.08;;
37288;SDS011;23174;49.462;11.000;2022-12-18T06:12:24;23.08;;;18.50;;
37288;SDS011;23174;49.462;11.000;2022-12-18T06:14:25;22.33;;;18.05;;
37288;SDS011;23174;49.462;11.000;2022-12-18T06:16:26;23.15;;;18.02;;
37288;SDS011;23174;49.462;11.000;2022-12-18T06:18:27;24.98;;;18.58;;
37288;SDS011;23174;49.462;11.000;2022-12-18T06:20:28;24.80;;;19.25;;
37288;SDS011;23174;49.462;11.000;2022-12-18T06:22:30;22.23;;;17.83;;
37288;SDS011;23174;49.462;11.000;2022-12-18T06:24:31;25.83;;;20.08;;
37288;SDS011;23174;49.462;11.000;2022-12-18T06:26:33;24.17;;;19.50;;
37288;SDS011;23174;49.462;11.000;2022-12-18T06:28:34;23.00;;;18.42;;
37288;SDS011;23174;49.462;11.000;2022-12-18T06:30:34;24.42;;;19.33;;
37288;SDS011;23174;49.462;11.000;2022-12-18T06:32:36;24.73;;;19.70;;
37288;SDS011;23174;49.462;11.000;2022-12-18T06:34:37;25.77;;;18.60;;
37288;SDS011;23174;49.462;11.000;2022-12-18T06:36:37;24.35;;;19.35;;
37288;SDS011;23174;49.462;11.000;2022-12-18T06:38:39;25.10;;;19.65;;
37288;SDS011;23174;49.462;11.000;2022-12-18T06:40:41;24.60;;;18.33;;
37288;SDS011;23174;49.462;11.000;2022-12-18T06:42:41;21.52;;;18.02;;
37288;SDS011;23174;49.462;11.000;2022-12-18T06:44:42;25.20;;;19.23;;
37288;SDS011;23174;49.462;11.000;2022-12-18T06:46:43;26.05;;;19.42;;
37288;SDS011;23174;49.462;11.000;2022-12-18T06:48:46;23.60;;;19.02;;
37288;SDS011;23174;49.462;11.000;2022-12-18T06:50:47;25.02;;;18.92;;
37288;SDS011;23174;49.462;11.000;2022-12-18T06:52:48;26.10;;;18.58;;
37288;SDS011;23174;49.462;11.000;2022-12-18T06:54:48;23.70;;;18.23;;
37288;SDS011;23174;49.462;11.000;2022-12-18T06:56:49;24.27;;;18.75;;
37288;SDS011;23174;49.462;11.000;2022-12-18T06:58:49;25.92;;;19.38;;
37288;SDS011;23174;49.462;11.000;2022-12-18T07:00:50;22.58;;;17.83;;
37288;SDS011;23174;49.462;11.000;2022-12-18T07:02:51;26.33;;;19.65;;
37288;SDS011;23174;49.462;11.000;2022-12-18T07:04:52;27.33;;;19.20;;
37288;SDS011;23174;49.462;11.000;2022-12-18T07:06:52;23.63;;;18.25;;
37288;SDS011;23174;49.462;11.000;2022-12-18T07:08:53;24.85;;;18.52;;
37288;SDS011;23174;49.462;11.000;2022-12-18T07:10:54;22.85;;;18.38;;
37288;SDS011;23174;49.462;11.000;2022-12-18T07:12:55;24.30;;;18.55;;
37288;SDS011;23174;49.462;11.000;2022-12-18T07:14:55;24.73;;;18.13;;
37288;SDS011;23174;49.462;11.000;2022-12-18T07:16:56;23.77;;;18.27;;
37288;SDS011;23174;49.462;11.000;2022-12-18T07:18:56;24.08;;;17.17;;
37288;SDS011;23174;49.462;11.000;2022-12-18T07:20:57;22.63;;;16.85;;
37288;SDS011;23174;49.462;11.000;2022-12-18T07:22:58;25.08;;;17.25;;
37288;SDS011;23174;49.462;11.000;2022-12-18T07:24:58;22.33;;;17.63;;
37288;SDS011;23174;49.462;11.000;2022-12-18T07:26:59;24.05;;;18.20;;
37288;SDS011;23174;49.462;11.000;2022-12-18T07:28:59;27.77;;;19.17;;
37288;SDS011;23174;49.462;11.000;2022-12-18T07:31:06;24.67;;;18.08;;
37288;SDS011;23174;49.462;11.000;2022-12-18T07:33:09;25.55;;;18.45;;
37288;SDS011;23174;49.462;11.000;2022-12-18T07:35:09;21.20;;;16.73;;
37288;SDS011;23174;49.462;11.000;2022-12-18T07:37:10;24.40;;;18.13;;
37288;SDS011;23174;49.462;11.000;2022-12-18T07:39:11;25.33;;;17.95;;
37288;SDS011;23174;49.462;11.000;2022-12-18T07:41:12;25.42;;;18.55;;
37288;SDS011;23174;49.462;11.000;2022-12-18T07:43:13;26.10;;;18.75;;
37288;SDS011;23174;49.462;11.000;2022-12-18T07:45:14;23.02;;;18.23;;
37288;SDS011;23174;49.462;11.000;2022-12-18T07:47:14;23.80;;;17.88;;
37288;SDS011;23174;49.462;11.000;2022-12-18T07:49:15;23.40;;;18.20;;
37288;SDS011;23174;49.462;11.000;2022-12-18T07:51:16;25.08;;;17.98;;
37288;SDS011;23174;49.462;11.000;2022-12-18T07:53:17;24.45;;;18.90;;
37288;SDS011;23174;49.462;11.000;2022-12-18T07:55:18;24.80;;;18.48;;
37288;SDS011;23174;49.462;11.000;2022-12-18T07:57:18;24.27;;;18.05;;
37288;SDS011;23174;49.462;11.000;2022-12-18T07:59:19;24.83;;;17.65;;
37288;SDS011;23174;49.462;11.000;2022-12-18T08:01:19;26.23;;;18.83;;
37288;SDS011;23174;49.462;11.000;2022-12-18T08:03:20;22.92;;;18.13;;
37288;SDS011;23174;49.462;11.000;2022-12-18T08:05:23;26.10;;;19.30;;
37288;SDS011;23174;49.462;11.000;2022-12-18T08:07:24;24.30;;;18.20;;
37288;SDS011;23174;49.462;11.000;2022-12-18T08:09:25;25.60;;;18.55;;
37288;SDS011;23174;49.462;11.000;2022-12-18T08:11:27;24.52;;;18.77;;
37288;SDS011;23174;49.462;11.000;2022-12-18T08:13:29;23.83;;;19.10;;
37288;SDS011;23174;49.462;11.000;2022-12-18T08:15:29;24.90;;;18.98;;
37288;SDS011;23174;49.462;11.000;2022-12-18T08:17:30;20.88;;;16.63;;
37288;SDS011;23174;49.462;11.000;2022-12-18T08:19:30;18.35;;;14.93;;
37288;SDS011;23174;49.462;11.000;2022-12-18T08:21:31;19.27;;;15.93;;
37288;SDS011;23174;49.462;11.000;2022-12-18T08:23:32;19.33;;;15.90;;
37288;SDS011;23174;49.462;11.000;2022-12-18T08:25:33;21.10;;;16.77;;
37288;SDS011;23174;49.462;11.000;2022-12-18T08:27:34;23.00;;;17.10;;
37288;SDS011;23174;49.462;11.000;2022-12-18T08:29:34;18.63;;;15.30;;
37288;SDS011;23174;49.462;11.000;2022-12-18T08:31:35;17.88;;;14.95;;
37288;SDS011;23174;49.462;11.000;2022-12-18T08:33:37;19.50;;;15.70;;
37288;SDS011;23174;49.462;11.000;2022-12-18T08:35:38;16.20;;;13.70;;
37288;SDS011;23174;49.462;11.000;2022-12-18T08:37:39;17.35;;;14.57;;
37288;SDS011;23174;49.462;11.000;2022-12-18T08:39:39;17.85;;;15.13;;
37288;SDS011;23174;49.462;11.000;2022-12-18T08:41:40;17.75;;;14.20;;
37288;SDS011;23174;49.462;11.000;2022-12-18T08:43:41;17.20;;;14.65;;
37288;SDS011;23174;49.462;11.000;2022-12-18T08:46:00;16.00;;;13.43;;
37288;SDS011;23174;49.462;11.000;2022-12-18T08:48:01;15.95;;;13.30;;
37288;SDS011;23174;49.462;11.000;2022-12-18T08:50:01;16.13;;;13.15;;
37288;SDS011;23174;49.462;11.000;2022-12-18T08:52:02;17.38;;;14.60;;
37288;SDS011;23174;49.462;11.000;2022-12-18T08:54:03;16.67;;;14.40;;
37288;SDS011;23174;49.462;11.000;2022-12-18T08:56:04;16.45;;;13.40;;
37288;SDS011;23174;49.462;11.000;2022-12-18T08:58:05;14.20;;;12.80;;
37288;SDS011;23174;49.462;11.000;2022-12-18T09:00:06;17.10;;;13.85;;
37288;SDS011;23174;49.462;11.000;2022-12-18T09:02:10;18.10;;;14.55;;
37288;SDS011;23174;49.462;11.000;2022-12-18T09:04:11;16.58;;;14.68;;
37288;SDS011;23174;49.462;11.000;2022-12-18T09:06:15;17.67;;;14.95;;
37288;SDS011;23174;49.462;11.000;2022-12-18T09:08:17;16.05;;;14.13;;
37288;SDS011;23174;49.462;11.000;2022-12-18T09:10:17;18.48;;;14.55;;
37288;SDS011;23174;49.462;11.000;2022-12-18T09:12:18;16.08;;;13.02;;
37288;SDS011;23174;49.462;11.000;2022-12-18T09:14:19;16.30;;;14.52;;
37288;SDS011;23174;49.462;11.000;2022-12-18T09:16:20;15.45;;;13.77;;
37288;SDS011;23174;49.462;11.000;2022-12-18T09:18:22;16.13;;;14.13;;
37288;SDS011;23174;49.462;11.000;2022-12-18T09:20:23;15.95;;;13.52;;
37288;SDS011;23174;49.462;11.000;2022-12-18T09:22:24;16.35;;;14.23;;
37288;SDS011;23174;49.462;11.000;2022-12-18T09:24:25;19.42;;;15.07;;
37288;SDS011;23174;49.462;11.000;2022-12-18T09:26:25;20.08;;;14.90;;
37288;SDS011;23174;49.462;11.000;2022-12-18T09:28:27;18.75;;;14.63;;
37288;SDS011;23174;49.462;11.000;2022-12-18T09:30:27;20.13;;;15.25;;
37288;SDS011;23174;49.462;11.000;2022-12-18T09:32:28;18.02;;;15.10;;
37288;SDS011;23174;49.462;11.000;2022-12-18T09:34:28;19.17;;;15.27;;
37288;SDS011;23174;49.462;11.000;2022-12-18T09:36:29;18.60;;;15.45;;
37288;SDS011;23174;49.462;11.000;2022-12-18T09:38:29;18.35;;;14.65;;
37288;SDS011;23174;49.462;11.000;2022-12-18T09:40:35;15.65;;;13.65;;
37288;SDS011;23174;49.462;11.000;2022-12-18T09:42:39;16.05;;;13.73;;
37288;SDS011;23174;49.462;11.000;2022-12-18T09:44:41;16.67;;;14.07;;
37288;SDS011;23174;49.462;11.000;2022-12-18T09:46:53;18.05;;;13.43;;
37288;SDS011;23174;49.462;11.000;2022-12-18T09:49:12;20.15;;;14.13;;
37288;SDS011;23174;49.462;11.000;2022-12-18T09:51:22;18.98;;;12.57;;
37288;SDS011;23174;49.462;11.000;2022-12-18T09:53:31;15.70;;;11.95;;
37288;SDS011;23174;49.462;11.000;2022-12-18T09:55:35;15.02;;;12.15;;
37288;SDS011;23174;49.462;11.000;2022-12-18T09:57:39;14.90;;;12.52;;
37288;SDS011;23174;49.462;11.000;2022-12-18T09:59:54;14.32;;;12.65;;
37288;SDS011;23174;49.462;11.000;2022-12-18T10:02:21;13.57;;;12.18;;
37288;SDS011;23174;49.462;11.000;2022-12-18T10:04:24;14.57;;;12.27;;
37288;SDS011;23174;49.462;11.000;2022-12-18T10:10:58;13.60;;;12.10;;
37288;SDS011;23174;49.462;11.000;2022-12-18T10:15:39;14.63;;;12.73;;
37288;SDS011;23174;49.462;11.000;2022-12-18T10:17:50;16.63;;;13.98;;
37288;SDS011;23174;49.462;11.000;2022-12-18T10:20:20;15.63;;;12.95;;
37288;SDS011;23174;49.462;11.000;2022-12-18T10:24:44;15.68;;;13.88;;
37288;SDS011;23174;49.462;11.000;2022-12-18T10:26:49;15.20;;;13.60;;
37288;SDS011;23174;49.462;11.000;2022-12-18T10:28:51;16.02;;;13.50;;
37288;SDS011;23174;49.462;11.000;2022-12-18T10:30:53;15.32;;;12.82;;
37288;SDS011;23174;49.462;11.000;2022-12-18T10:32:53;14.15;;;12.40;;
37288;SDS011;23174;49.462;11.000;2022-12-18T10:34:56;16.15;;;13.60;;
37288;SDS011;23174;49.462;11.000;2022-12-18T10:36:59;18.73;;;13.50;;
37288;SDS011;23174;49.462;11.000;2022-12-18T10:45:23;16.88;;;13.48;;
37288;SDS011;23174;49.462;11.000;2022-12-18T10:47:24;18.15;;;14.27;;
37288;SDS011;23174;49.462;11.000;2022-12-18T10:49:31;16.25;;;13.85;;
37288;SDS011;23174;49.462;11.000;2022-12-18T10:51:35;15.80;;;12.98;;
37288;SDS011;23174;49.462;11.000;2022-12-18T10:53:38;18.13;;;13.40;;
37288;SDS011;23174;49.462;11.000;2022-12-18T10:55:43;18.98;;;14.90;;
37288;SDS011;23174;49.462;11.000;2022-12-18T10:57:45;17.33;;;14.35;;
37288;SDS011;23174;49.462;11.000;2022-12-18T10:59:50;17.77;;;13.45;;
37288;SDS011;23174;49.462;11.000;2022-12-18T11:01:56;17.48;;;13.90;;
37288;SDS011;23174;49.462;11.000;2022-12-18T11:03:59;17.40;;;13.80;;
37288;SDS011;23174;49.462;11.000;2022-12-18T11:06:08;16.48;;;13.77;;
37288;SDS011;23174;49.462;11.000;2022-12-18T11:08:19;17.88;;;14.82;;
37288;SDS011;23174;49.462;11.000;2022-12-18T11:10:30;17.73;;;14.23;;
37288;SDS011;23174;49.462;11.000;2022-12-18T11:12:31;19.38;;;14.43;;
37288;SDS011;23174;49.462;11.000;2022-12-18T11:14:33;16.65;;;13.95;;
37288;SDS011;23174;49.462;11.000;2022-12-18T11:16:43;18.10;;;14.80;;
37288;SDS011;23174;49.462;11.000;2022-12-18T11:18:46;16.85;;;13.45;;
37288;SDS011;23174;49.462;11.000;2022-12-18T11:20:54;18.30;;;14.48;;
37288;SDS011;23174;49.462;11.000;2022-12-18T11:23:03;14.63;;;11.43;;
37288;SDS011;23174;49.462;11.000;2022-12-18T11:25:06;16.27;;;14.15;;
37288;SDS011;23174;49.462;11.000;2022-12-18T11:27:17;18.20;;;14.35;;
37288;SDS011;23174;49.462;11.000;2022-12-18T11:29:22;16.48;;;13.75;;
37288;SDS011;23174;49.462;11.000;2022-12-18T11:31:28;18.48;;;14.40;;
37288;SDS011;23174;49.462;11.000;2022-12-18T11:33:31;16.10;;;13.75;;
37288;SDS011;23174;49.462;11.000;2022-12-18T11:37:38;18.90;;;14.45;;
37288;SDS011;23174;49.462;11.000;2022-12-18T11:39:49;20.98;;;15.57;;
37288;SDS011;23174;49.462;11.000;2022-12-18T11:41:58;16.35;;;13.65;;
37288;SDS011;23174;49.462;11.000;2022-12-18T11:44:13;16.98;;;14.00;;
37288;SDS011;23174;49.462;11.000;2022-12-18T11:50:51;17.25;;;13.93;;
37288;SDS011;23174;49.462;11.000;2022-12-18T11:52:55;19.63;;;15.57;;
37288;SDS011;23174;49.462;11.000;2022-12-18T11:55:01;18.55;;;14.45;;
37288;SDS011;23174;49.462;11.000;2022-12-18T11:57:54;18.17;;;14.23;;
37288;SDS011;23174;49.462;11.000;2022-12-18T12:04:40;17.98;;;14.75;;
37288;SDS011;23174;49.462;11.000;2022-12-18T12:09:54;19.67;;;15.57;;
37288;SDS011;23174;49.462;11.000;2022-12-18T12:14:03;17.27;;;14.68;;
37288;SDS011;23174;49.462;11.000;2022-12-18T12:18:41;19.40;;;14.43;;
37288;SDS011;23174;49.462;11.000;2022-12-18T12:21:07;17.15;;;13.70;;
37288;SDS011;23174;49.462;11.000;2022-12-18T12:25:37;17.60;;;14.60;;
37288;SDS011;23174;49.462;11.000;2022-12-18T12:27:53;19.63;;;15.82;;
37288;SDS011;23174;49.462;11.000;2022-12-18T12:35:47;18.77;;;14.40;;
37288;SDS011;23174;49.462;11.000;2022-12-18T12:39:59;19.85;;;14.55;;
37288;SDS011;23174;49.462;11.000;2022-12-18T12:42:04;18.38;;;14.50;;
37288;SDS011;23174;49.462;11.000;2022-12-18T12:44:43;19.48;;;15.00;;
37288;SDS011;23174;49.462;11.000;2022-12-18T12:46:48;19.48;;;14.25;;
37288;SDS011;23174;49.462;11.000;2022-12-18T12:49:02;18.70;;;14.75;;
37288;SDS011;23174;49.462;11.000;2022-12-18T12:51:12;20.40;;;15.20;;
37288;SDS011;23174;49.462;11.000;2022-12-18T12:53:25;18.58;;;14.98;;
37288;SDS011;23174;49.462;11.000;2022-12-18T12:55:30;17.80;;;14.60;;
37288;SDS011;23174;49.462;11.000;2022-12-18T12:57:34;18.60;;;14.80;;
37288;SDS011;23174;49.462;11.000;2022-12-18T13:04:36;22.10;;;16.52;;